Terminal Aerodrome Forecast
Issued by NWS Wilmington, NC

Home | Current Version | Previous Version | Text Only | Print | Product List | Glossary On
Versions: 1 2 3 4 5 6 7 8 9 10 11 12 13 14 15 16 17 18 19 20 21 22 23
000
FTUS42 KILM 241550 AAB
TAFFLO
TAF AMD
KFLO 241550Z 2416/2512 10008KT 6SM BR BKN005
     FM241800 19007KT P6SM SCT020
     FM250300 20005KT 6SM HZ BR OVC050=

USA.gov is the U.S. government's official web portal to all federal, state and local government web resources and services.